Terminal Aerodrome Forecast
Issued by NWS Brownsville, TX

Home | Current Version | Previous Version | Text Only | Print | Product List | Glossary On
Versions: 1 2 3 4 5 6 7 8 9 10 11 12 13 14 15 16 17 18 19 20 21 22 23 24 25 26 27 28 29
711
FTUS44 KBRO 231758 CCA
TAFMFE
TAF COR
KMFE 231758Z 2318/2418 05006KT P6SM OVC080
     FM240600 02005KT P6SM OVC050
     FM240900 36005KT P6SM VCSH OVC035
     FM241500 36005KT P6SM VCSH OVC025=

USA.gov is the U.S. government's official web portal to all federal, state and local government web resources and services.